sensor_id;sensor_type;location;lat;lon;timestamp;temperature;humidity
32366;DHT22;18837;46.832;16.838;2023-06-14T00:01:45;19.60;78.40
32366;DHT22;18837;46.832;16.838;2023-06-14T00:04:12;19.60;78.50
32366;DHT22;18837;46.832;16.838;2023-06-14T00:06:38;19.50;78.30
32366;DHT22;18837;46.832;16.838;2023-06-14T00:09:04;19.50;78.20
32366;DHT22;18837;46.832;16.838;2023-06-14T00:11:31;19.50;78.40
32366;DHT22;18837;46.832;16.838;2023-06-14T00:13:57;19.50;78.40
32366;DHT22;18837;46.832;16.838;2023-06-14T00:16:23;19.50;78.60
32366;DHT22;18837;46.832;16.838;2023-06-14T00:18:49;19.50;78.40
32366;DHT22;18837;46.832;16.838;2023-06-14T00:21:17;19.50;78.40
32366;DHT22;18837;46.832;16.838;2023-06-14T00:23:43;19.40;78.50
32366;DHT22;18837;46.832;16.838;2023-06-14T00:26:09;19.40;78.60
32366;DHT22;18837;46.832;16.838;2023-06-14T00:28:35;19.40;78.80
32366;DHT22;18837;46.832;16.838;2023-06-14T00:31:00;19.40;77.80
32366;DHT22;18837;46.832;16.838;2023-06-14T00:33:26;19.40;78.90
32366;DHT22;18837;46.832;16.838;2023-06-14T00:35:52;19.40;79.00
32366;DHT22;18837;46.832;16.838;2023-06-14T00:38:20;19.30;78.80
32366;DHT22;18837;46.832;16.838;2023-06-14T00:40:46;19.30;78.70
32366;DHT22;18837;46.832;16.838;2023-06-14T00:43:12;19.30;78.80
32366;DHT22;18837;46.832;16.838;2023-06-14T00:45:38;19.30;79.00
32366;DHT22;18837;46.832;16.838;2023-06-14T00:48:06;19.30;79.00
32366;DHT22;18837;46.832;16.838;2023-06-14T00:50:35;19.30;78.80
32366;DHT22;18837;46.832;16.838;2023-06-14T00:53:01;19.30;78.80
32366;DHT22;18837;46.832;16.838;2023-06-14T00:55:30;19.30;79.20
32366;DHT22;18837;46.832;16.838;2023-06-14T00:57:58;19.30;78.90
32366;DHT22;18837;46.832;16.838;2023-06-14T01:00:24;19.20;79.10
32366;DHT22;18837;46.832;16.838;2023-06-14T01:02:50;19.20;78.90
32366;DHT22;18837;46.832;16.838;2023-06-14T01:05:16;19.20;79.20
32366;DHT22;18837;46.832;16.838;2023-06-14T01:13:19;19.20;78.90
32366;DHT22;18837;46.832;16.838;2023-06-14T01:15:47;19.20;78.90
32366;DHT22;18837;46.832;16.838;2023-06-14T01:18:13;19.10;79.10
32366;DHT22;18837;46.832;16.838;2023-06-14T01:20:48;19.10;79.10
32366;DHT22;18837;46.832;16.838;2023-06-14T01:23:19;19.10;78.70
32366;DHT22;18837;46.832;16.838;2023-06-14T01:25:46;19.10;79.50
32366;DHT22;18837;46.832;16.838;2023-06-14T01:28:13;19.10;79.30
32366;DHT22;18837;46.832;16.838;2023-06-14T01:30:44;19.10;79.40
32366;DHT22;18837;46.832;16.838;2023-06-14T01:33:18;19.00;79.60
32366;DHT22;18837;46.832;16.838;2023-06-14T01:35:50;19.00;79.50
32366;DHT22;18837;46.832;16.838;2023-06-14T01:38:19;19.00;79.30
32366;DHT22;18837;46.832;16.838;2023-06-14T01:40:45;19.00;79.40
32366;DHT22;18837;46.832;16.838;2023-06-14T01:43:16;19.00;79.20
32366;DHT22;18837;46.832;16.838;2023-06-14T01:45:43;19.00;79.70
32366;DHT22;18837;46.832;16.838;2023-06-14T01:48:09;18.90;79.40
32366;DHT22;18837;46.832;16.838;2023-06-14T01:50:35;18.90;79.40
32366;DHT22;18837;46.832;16.838;2023-06-14T01:53:01;18.90;79.50
32366;DHT22;18837;46.832;16.838;2023-06-14T01:55:27;18.90;79.40
32366;DHT22;18837;46.832;16.838;2023-06-14T01:57:54;18.90;79.40
32366;DHT22;18837;46.832;16.838;2023-06-14T02:00:20;18.90;79.40
32366;DHT22;18837;46.832;16.838;2023-06-14T02:02:46;18.90;79.40
32366;DHT22;18837;46.832;16.838;2023-06-14T02:05:12;18.90;79.40
32366;DHT22;18837;46.832;16.838;2023-06-14T02:07:38;18.90;79.60
32366;DHT22;18837;46.832;16.838;2023-06-14T02:10:06;18.90;79.50
32366;DHT22;18837;46.832;16.838;2023-06-14T02:12:31;18.80;79.50
32366;DHT22;18837;46.832;16.838;2023-06-14T02:14:57;18.80;79.50
32366;DHT22;18837;46.832;16.838;2023-06-14T02:17:23;18.80;79.60
32366;DHT22;18837;46.832;16.838;2023-06-14T02:19:50;18.80;79.70
32366;DHT22;18837;46.832;16.838;2023-06-14T02:22:16;18.90;79.70
32366;DHT22;18837;46.832;16.838;2023-06-14T02:24:42;18.80;79.60
32366;DHT22;18837;46.832;16.838;2023-06-14T02:27:08;18.80;79.90
32366;DHT22;18837;46.832;16.838;2023-06-14T02:29:37;18.80;80.00
32366;DHT22;18837;46.832;16.838;2023-06-14T02:32:04;18.80;80.00
32366;DHT22;18837;46.832;16.838;2023-06-14T02:34:30;18.80;79.80
32366;DHT22;18837;46.832;16.838;2023-06-14T02:36:56;18.80;79.70
32366;DHT22;18837;46.832;16.838;2023-06-14T02:39:22;18.80;80.00
32366;DHT22;18837;46.832;16.838;2023-06-14T02:41:49;18.70;80.10
32366;DHT22;18837;46.832;16.838;2023-06-14T02:44:18;18.80;80.50
32366;DHT22;18837;46.832;16.838;2023-06-14T02:46:44;18.70;80.00
32366;DHT22;18837;46.832;16.838;2023-06-14T02:49:11;18.70;80.30
32366;DHT22;18837;46.832;16.838;2023-06-14T02:51:41;18.70;80.10
32366;DHT22;18837;46.832;16.838;2023-06-14T02:54:06;18.70;80.30
32366;DHT22;18837;46.832;16.838;2023-06-14T02:56:32;18.70;80.30
32366;DHT22;18837;46.832;16.838;2023-06-14T02:58:57;18.70;80.40
32366;DHT22;18837;46.832;16.838;2023-06-14T03:01:28;18.70;80.30
32366;DHT22;18837;46.832;16.838;2023-06-14T03:04:03;18.70;80.40
32366;DHT22;18837;46.832;16.838;2023-06-14T03:06:36;18.70;80.50
32366;DHT22;18837;46.832;16.838;2023-06-14T03:09:03;18.70;80.60
32366;DHT22;18837;46.832;16.838;2023-06-14T03:11:32;18.70;80.80
32366;DHT22;18837;46.832;16.838;2023-06-14T03:13:57;18.70;80.60
32366;DHT22;18837;46.832;16.838;2023-06-14T03:16:23;18.60;80.60
32366;DHT22;18837;46.832;16.838;2023-06-14T03:18:53;18.60;80.60
32366;DHT22;18837;46.832;16.838;2023-06-14T03:21:19;18.60;80.60
32366;DHT22;18837;46.832;16.838;2023-06-14T03:23:48;18.60;80.70
32366;DHT22;18837;46.832;16.838;2023-06-14T03:26:14;18.60;81.10
32366;DHT22;18837;46.832;16.838;2023-06-14T03:28:44;18.60;81.10
32366;DHT22;18837;46.832;16.838;2023-06-14T03:31:11;18.60;81.40
32366;DHT22;18837;46.832;16.838;2023-06-14T03:33:36;18.60;80.80
32366;DHT22;18837;46.832;16.838;2023-06-14T03:36:02;18.60;80.90
32366;DHT22;18837;46.832;16.838;2023-06-14T03:38:28;18.60;81.00
32366;DHT22;18837;46.832;16.838;2023-06-14T03:40:54;18.60;81.20
32366;DHT22;18837;46.832;16.838;2023-06-14T03:43:20;18.60;81.30
32366;DHT22;18837;46.832;16.838;2023-06-14T03:45:51;18.60;80.90
32366;DHT22;18837;46.832;16.838;2023-06-14T03:48:17;18.60;81.40
32366;DHT22;18837;46.832;16.838;2023-06-14T03:50:42;18.60;81.00
32366;DHT22;18837;46.832;16.838;2023-06-14T03:53:10;18.60;81.30
32366;DHT22;18837;46.832;16.838;2023-06-14T03:55:36;18.60;81.40
32366;DHT22;18837;46.832;16.838;2023-06-14T03:58:03;18.60;81.30
32366;DHT22;18837;46.832;16.838;2023-06-14T04:00:29;18.60;81.20
32366;DHT22;18837;46.832;16.838;2023-06-14T04:02:55;18.60;81.50
32366;DHT22;18837;46.832;16.838;2023-06-14T04:05:21;18.60;81.50
32366;DHT22;18837;46.832;16.838;2023-06-14T04:07:51;18.60;81.70
32366;DHT22;18837;46.832;16.838;2023-06-14T04:10:17;18.60;81.80
32366;DHT22;18837;46.832;16.838;2023-06-14T04:12:43;18.60;81.00
32366;DHT22;18837;46.832;16.838;2023-06-14T04:15:09;18.60;81.30
32366;DHT22;18837;46.832;16.838;2023-06-14T04:17:36;18.50;81.30
32366;DHT22;18837;46.832;16.838;2023-06-14T04:20:02;18.50;81.70
32366;DHT22;18837;46.832;16.838;2023-06-14T04:22:33;18.50;81.50
32366;DHT22;18837;46.832;16.838;2023-06-14T04:24:59;18.50;81.90
32366;DHT22;18837;46.832;16.838;2023-06-14T04:27:26;18.50;81.60
32366;DHT22;18837;46.832;16.838;2023-06-14T04:29:55;18.50;81.90
32366;DHT22;18837;46.832;16.838;2023-06-14T04:32:28;18.50;81.50
32366;DHT22;18837;46.832;16.838;2023-06-14T04:35:05;18.50;81.90
32366;DHT22;18837;46.832;16.838;2023-06-14T04:37:31;18.50;81.80
32366;DHT22;18837;46.832;16.838;2023-06-14T04:39:57;18.50;81.70
32366;DHT22;18837;46.832;16.838;2023-06-14T04:42:23;18.50;82.00
32366;DHT22;18837;46.832;16.838;2023-06-14T04:44:56;18.40;81.80
32366;DHT22;18837;46.832;16.838;2023-06-14T04:47:23;18.40;81.80
32366;DHT22;18837;46.832;16.838;2023-06-14T04:49:56;18.50;82.40
32366;DHT22;18837;46.832;16.838;2023-06-14T04:52:22;18.40;82.10
32366;DHT22;18837;46.832;16.838;2023-06-14T04:54:48;18.50;82.10
32366;DHT22;18837;46.832;16.838;2023-06-14T04:57:14;18.50;82.30
32366;DHT22;18837;46.832;16.838;2023-06-14T04:59:43;18.50;82.20
32366;DHT22;18837;46.832;16.838;2023-06-14T05:02:10;18.50;82.10
32366;DHT22;18837;46.832;16.838;2023-06-14T05:04:37;18.50;82.10
32366;DHT22;18837;46.832;16.838;2023-06-14T05:07:07;18.40;82.30
32366;DHT22;18837;46.832;16.838;2023-06-14T05:09:32;18.40;82.30
32366;DHT22;18837;46.832;16.838;2023-06-14T05:11:58;18.40;82.30
32366;DHT22;18837;46.832;16.838;2023-06-14T05:14:27;18.40;82.20
32366;DHT22;18837;46.832;16.838;2023-06-14T05:16:53;18.40;82.40
32366;DHT22;18837;46.832;16.838;2023-06-14T05:19:19;18.40;82.10
32366;DHT22;18837;46.832;16.838;2023-06-14T05:21:47;18.40;82.30
32366;DHT22;18837;46.832;16.838;2023-06-14T05:24:16;18.40;82.30
32366;DHT22;18837;46.832;16.838;2023-06-14T05:26:45;18.40;81.80
32366;DHT22;18837;46.832;16.838;2023-06-14T05:29:11;18.40;82.40
32366;DHT22;18837;46.832;16.838;2023-06-14T05:31:37;18.40;82.30
32366;DHT22;18837;46.832;16.838;2023-06-14T05:34:03;18.40;82.30
32366;DHT22;18837;46.832;16.838;2023-06-14T05:36:29;18.40;82.30
32366;DHT22;18837;46.832;16.838;2023-06-14T05:38:55;18.40;82.50
32366;DHT22;18837;46.832;16.838;2023-06-14T05:41:28;18.40;82.30
32366;DHT22;18837;46.832;16.838;2023-06-14T05:43:55;18.40;82.60
32366;DHT22;18837;46.832;16.838;2023-06-14T05:46:21;18.30;82.20
32366;DHT22;18837;46.832;16.838;2023-06-14T05:48:48;18.40;82.50
32366;DHT22;18837;46.832;16.838;2023-06-14T05:51:14;18.40;82.40
32366;DHT22;18837;46.832;16.838;2023-06-14T05:53:47;18.40;82.40
32366;DHT22;18837;46.832;16.838;2023-06-14T05:56:14;18.40;82.00
32366;DHT22;18837;46.832;16.838;2023-06-14T05:58:40;18.40;82.50
32366;DHT22;18837;46.832;16.838;2023-06-14T06:01:06;18.50;82.40
32366;DHT22;18837;46.832;16.838;2023-06-14T06:03:32;18.50;82.50
32366;DHT22;18837;46.832;16.838;2023-06-14T06:05:58;18.50;82.30
32366;DHT22;18837;46.832;16.838;2023-06-14T06:08:24;18.50;82.30
32366;DHT22;18837;46.832;16.838;2023-06-14T06:10:50;18.60;82.40
32366;DHT22;18837;46.832;16.838;2023-06-14T06:13:16;18.60;82.40
32366;DHT22;18837;46.832;16.838;2023-06-14T06:15:41;18.60;82.10
32366;DHT22;18837;46.832;16.838;2023-06-14T06:18:07;18.60;82.60
32366;DHT22;18837;46.832;16.838;2023-06-14T06:20:33;18.60;82.00
32366;DHT22;18837;46.832;16.838;2023-06-14T06:22:59;18.60;82.50
32366;DHT22;18837;46.832;16.838;2023-06-14T06:25:28;18.70;82.30
32366;DHT22;18837;46.832;16.838;2023-06-14T06:27:54;18.70;82.30
32366;DHT22;18837;46.832;16.838;2023-06-14T06:30:22;18.70;82.50
32366;DHT22;18837;46.832;16.838;2023-06-14T06:32:48;18.70;82.40
32366;DHT22;18837;46.832;16.838;2023-06-14T06:35:14;18.70;82.50
32366;DHT22;18837;46.832;16.838;2023-06-14T06:37:41;18.70;82.40
32366;DHT22;18837;46.832;16.838;2023-06-14T06:40:07;18.70;82.50
32366;DHT22;18837;46.832;16.838;2023-06-14T06:42:34;18.70;82.30
32366;DHT22;18837;46.832;16.838;2023-06-14T06:45:00;18.80;82.50
32366;DHT22;18837;46.832;16.838;2023-06-14T06:47:26;18.80;82.30
32366;DHT22;18837;46.832;16.838;2023-06-14T06:49:52;18.80;82.00
32366;DHT22;18837;46.832;16.838;2023-06-14T06:52:18;18.80;81.80
32366;DHT22;18837;46.832;16.838;2023-06-14T06:54:43;18.70;81.80
32366;DHT22;18837;46.832;16.838;2023-06-14T06:57:09;18.70;82.30
32366;DHT22;18837;46.832;16.838;2023-06-14T06:59:36;18.80;82.50
32366;DHT22;18837;46.832;16.838;2023-06-14T07:02:03;18.80;82.40
32366;DHT22;18837;46.832;16.838;2023-06-14T07:04:28;18.80;82.40
32366;DHT22;18837;46.832;16.838;2023-06-14T07:06:55;18.80;82.20
32366;DHT22;18837;46.832;16.838;2023-06-14T07:09:22;18.80;82.10
32366;DHT22;18837;46.832;16.838;2023-06-14T07:11:49;18.90;82.20
32366;DHT22;18837;46.832;16.838;2023-06-14T07:14:15;18.90;82.10
32366;DHT22;18837;46.832;16.838;2023-06-14T07:16:41;18.90;82.00
32366;DHT22;18837;46.832;16.838;2023-06-14T07:19:07;18.90;82.30
32366;DHT22;18837;46.832;16.838;2023-06-14T07:21:34;18.90;81.90
32366;DHT22;18837;46.832;16.838;2023-06-14T07:24:00;18.90;81.90
32366;DHT22;18837;46.832;16.838;2023-06-14T07:26:26;18.90;81.70
32366;DHT22;18837;46.832;16.838;2023-06-14T07:28:52;18.90;81.70
32366;DHT22;18837;46.832;16.838;2023-06-14T07:31:18;18.90;81.60
32366;DHT22;18837;46.832;16.838;2023-06-14T07:33:44;19.00;81.70
32366;DHT22;18837;46.832;16.838;2023-06-14T07:36:10;19.00;81.60
32366;DHT22;18837;46.832;16.838;2023-06-14T07:38:36;19.00;81.40
32366;DHT22;18837;46.832;16.838;2023-06-14T07:41:02;19.10;81.40
32366;DHT22;18837;46.832;16.838;2023-06-14T07:43:28;19.10;81.50
32366;DHT22;18837;46.832;16.838;2023-06-14T07:45:54;19.10;81.30
32366;DHT22;18837;46.832;16.838;2023-06-14T07:48:20;19.10;81.30
32366;DHT22;18837;46.832;16.838;2023-06-14T07:50:46;19.10;81.10
32366;DHT22;18837;46.832;16.838;2023-06-14T07:53:12;19.10;81.00
32366;DHT22;18837;46.832;16.838;2023-06-14T07:55:38;19.20;80.70
32366;DHT22;18837;46.832;16.838;2023-06-14T07:58:07;19.20;80.90
32366;DHT22;18837;46.832;16.838;2023-06-14T08:00:33;19.30;81.10
32366;DHT22;18837;46.832;16.838;2023-06-14T08:02:59;19.30;81.20
32366;DHT22;18837;46.832;16.838;2023-06-14T08:05:26;19.40;81.40
32366;DHT22;18837;46.832;16.838;2023-06-14T08:07:53;19.50;81.90
32366;DHT22;18837;46.832;16.838;2023-06-14T08:10:19;19.50;81.90
32366;DHT22;18837;46.832;16.838;2023-06-14T08:12:45;19.50;81.70
32366;DHT22;18837;46.832;16.838;2023-06-14T08:15:11;19.60;81.80
32366;DHT22;18837;46.832;16.838;2023-06-14T08:17:37;19.70;81.90
32366;DHT22;18837;46.832;16.838;2023-06-14T08:20:03;19.70;81.70
32366;DHT22;18837;46.832;16.838;2023-06-14T08:22:31;19.70;82.00
32366;DHT22;18837;46.832;16.838;2023-06-14T08:25:00;19.70;82.00
32366;DHT22;18837;46.832;16.838;2023-06-14T08:27:26;19.80;82.00
32366;DHT22;18837;46.832;16.838;2023-06-14T08:29:52;19.80;82.20
32366;DHT22;18837;46.832;16.838;2023-06-14T08:32:18;19.80;82.40
32366;DHT22;18837;46.832;16.838;2023-06-14T08:34:44;19.90;82.50
32366;DHT22;18837;46.832;16.838;2023-06-14T08:37:09;19.90;82.40
32366;DHT22;18837;46.832;16.838;2023-06-14T08:39:36;20.00;82.40
32366;DHT22;18837;46.832;16.838;2023-06-14T08:42:03;20.10;83.20
32366;DHT22;18837;46.832;16.838;2023-06-14T08:44:32;20.10;82.50
32366;DHT22;18837;46.832;16.838;2023-06-14T08:46:59;20.20;82.30
32366;DHT22;18837;46.832;16.838;2023-06-14T08:49:27;20.30;82.60
32366;DHT22;18837;46.832;16.838;2023-06-14T08:52:00;20.30;82.20
32366;DHT22;18837;46.832;16.838;2023-06-14T08:54:30;20.30;81.90
32366;DHT22;18837;46.832;16.838;2023-06-14T08:56:59;20.30;81.50
32366;DHT22;18837;46.832;16.838;2023-06-14T08:59:28;20.40;82.40
32366;DHT22;18837;46.832;16.838;2023-06-14T09:01:56;20.30;81.50
32366;DHT22;18837;46.832;16.838;2023-06-14T09:04:23;20.30;81.30
32366;DHT22;18837;46.832;16.838;2023-06-14T09:06:50;20.30;81.60
32366;DHT22;18837;46.832;16.838;2023-06-14T09:09:21;20.30;81.20
32366;DHT22;18837;46.832;16.838;2023-06-14T09:11:50;20.30;81.20
32366;DHT22;18837;46.832;16.838;2023-06-14T09:14:17;20.30;80.80
32366;DHT22;18837;46.832;16.838;2023-06-14T09:16:43;20.30;80.50
32366;DHT22;18837;46.832;16.838;2023-06-14T09:19:23;20.30;80.70
32366;DHT22;18837;46.832;16.838;2023-06-14T09:21:50;20.30;80.90
32366;DHT22;18837;46.832;16.838;2023-06-14T09:24:18;20.30;80.90
32366;DHT22;18837;46.832;16.838;2023-06-14T09:26:47;20.30;81.00
32366;DHT22;18837;46.832;16.838;2023-06-14T09:29:13;20.30;81.00
32366;DHT22;18837;46.832;16.838;2023-06-14T09:31:39;20.20;80.80
32366;DHT22;18837;46.832;16.838;2023-06-14T09:34:05;20.20;80.80
32366;DHT22;18837;46.832;16.838;2023-06-14T09:36:32;20.20;80.80
32366;DHT22;18837;46.832;16.838;2023-06-14T09:39:08;20.20;81.10
32366;DHT22;18837;46.832;16.838;2023-06-14T09:41:38;20.10;80.50
32366;DHT22;18837;46.832;16.838;2023-06-14T09:44:06;20.10;80.90
32366;DHT22;18837;46.832;16.838;2023-06-14T09:46:33;20.10;80.60
32366;DHT22;18837;46.832;16.838;2023-06-14T09:49:00;20.10;80.80
32366;DHT22;18837;46.832;16.838;2023-06-14T09:51:27;20.10;81.00
32366;DHT22;18837;46.832;16.838;2023-06-14T09:53:58;20.00;80.90
32366;DHT22;18837;46.832;16.838;2023-06-14T09:56:44;20.00;80.90
32366;DHT22;18837;46.832;16.838;2023-06-14T09:59:10;20.00;80.70
32366;DHT22;18837;46.832;16.838;2023-06-14T10:01:42;20.00;81.00
32366;DHT22;18837;46.832;16.838;2023-06-14T10:04:09;20.00;81.10
32366;DHT22;18837;46.832;16.838;2023-06-14T10:06:45;20.00;81.20
32366;DHT22;18837;46.832;16.838;2023-06-14T10:09:12;19.90;81.00
32366;DHT22;18837;46.832;16.838;2023-06-14T10:11:38;20.00;81.10
32366;DHT22;18837;46.832;16.838;2023-06-14T10:14:34;20.00;80.90
32366;DHT22;18837;46.832;16.838;2023-06-14T10:17:25;19.90;80.90
32366;DHT22;18837;46.832;16.838;2023-06-14T10:20:12;19.90;80.90
32366;DHT22;18837;46.832;16.838;2023-06-14T10:23:29;19.90;81.00
32366;DHT22;18837;46.832;16.838;2023-06-14T10:25:32;19.90;81.00
32366;DHT22;18837;46.832;16.838;2023-06-14T10:28:28;19.90;81.20
32366;DHT22;18837;46.832;16.838;2023-06-14T10:31:09;19.90;81.10
32366;DHT22;18837;46.832;16.838;2023-06-14T10:33:56;19.90;81.30
32366;DHT22;18837;46.832;16.838;2023-06-14T10:39:18;19.80;81.50
32366;DHT22;18837;46.832;16.838;2023-06-14T10:41:55;19.80;81.60
32366;DHT22;18837;46.832;16.838;2023-06-14T10:46:59;19.80;81.60
32366;DHT22;18837;46.832;16.838;2023-06-14T10:49:48;19.80;81.50
32366;DHT22;18837;46.832;16.838;2023-06-14T10:52:27;19.80;81.30
32366;DHT22;18837;46.832;16.838;2023-06-14T10:55:06;19.70;81.40
32366;DHT22;18837;46.832;16.838;2023-06-14T10:57:53;19.70;81.50
32366;DHT22;18837;46.832;16.838;2023-06-14T11:00:25;19.70;81.90
32366;DHT22;18837;46.832;16.838;2023-06-14T11:10:54;19.60;82.10
32366;DHT22;18837;46.832;16.838;2023-06-14T11:13:25;19.70;82.50
32366;DHT22;18837;46.832;16.838;2023-06-14T11:15:51;19.70;82.60
32366;DHT22;18837;46.832;16.838;2023-06-14T11:18:22;19.70;82.80
32366;DHT22;18837;46.832;16.838;2023-06-14T11:20:52;19.70;82.90
32366;DHT22;18837;46.832;16.838;2023-06-14T11:23:38;19.80;83.20
32366;DHT22;18837;46.832;16.838;2023-06-14T11:26:37;19.80;83.10
32366;DHT22;18837;46.832;16.838;2023-06-14T11:29:02;19.80;83.00
32366;DHT22;18837;46.832;16.838;2023-06-14T11:31:29;19.70;82.90
32366;DHT22;18837;46.832;16.838;2023-06-14T11:33:56;19.80;83.10
32366;DHT22;18837;46.832;16.838;2023-06-14T11:36:23;19.80;83.10
32366;DHT22;18837;46.832;16.838;2023-06-14T11:38:49;19.80;83.10
32366;DHT22;18837;46.832;16.838;2023-06-14T11:41:20;19.80;83.00
32366;DHT22;18837;46.832;16.838;2023-06-14T11:43:53;19.80;83.20
32366;DHT22;18837;46.832;16.838;2023-06-14T11:46:19;19.80;83.00
32366;DHT22;18837;46.832;16.838;2023-06-14T11:48:49;19.80;83.00
32366;DHT22;18837;46.832;16.838;2023-06-14T11:51:15;19.80;82.90
32366;DHT22;18837;46.832;16.838;2023-06-14T11:53:42;19.80;83.20
32366;DHT22;18837;46.832;16.838;2023-06-14T11:56:17;19.80;83.20
32366;DHT22;18837;46.832;16.838;2023-06-14T11:58:56;19.80;83.30
32366;DHT22;18837;46.832;16.838;2023-06-14T12:01:54;19.70;83.10
32366;DHT22;18837;46.832;16.838;2023-06-14T12:04:24;19.70;83.10
32366;DHT22;18837;46.832;16.838;2023-06-14T12:06:52;19.70;82.90
32366;DHT22;18837;46.832;16.838;2023-06-14T12:09:19;19.70;83.00
32366;DHT22;18837;46.832;16.838;2023-06-14T12:11:45;19.70;83.10
32366;DHT22;18837;46.832;16.838;2023-06-14T12:14:11;19.70;83.20
32366;DHT22;18837;46.832;16.838;2023-06-14T12:16:40;19.70;83.00
32366;DHT22;18837;46.832;16.838;2023-06-14T12:19:16;19.70;83.10
32366;DHT22;18837;46.832;16.838;2023-06-14T12:21:46;19.70;83.10
32366;DHT22;18837;46.832;16.838;2023-06-14T12:24:13;19.70;83.20
32366;DHT22;18837;46.832;16.838;2023-06-14T12:26:40;19.70;83.50
32366;DHT22;18837;46.832;16.838;2023-06-14T12:29:06;19.70;83.00
32366;DHT22;18837;46.832;16.838;2023-06-14T12:31:57;19.70;83.50
32366;DHT22;18837;46.832;16.838;2023-06-14T12:34:47;19.70;83.40
32366;DHT22;18837;46.832;16.838;2023-06-14T12:37:14;19.70;83.80
32366;DHT22;18837;46.832;16.838;2023-06-14T12:39:41;19.70;83.90
32366;DHT22;18837;46.832;16.838;2023-06-14T12:42:07;19.80;83.90
32366;DHT22;18837;46.832;16.838;2023-06-14T12:44:33;19.80;84.10
32366;DHT22;18837;46.832;16.838;2023-06-14T12:47:01;19.80;84.50
32366;DHT22;18837;46.832;16.838;2023-06-14T12:49:27;19.80;85.00
32366;DHT22;18837;46.832;16.838;2023-06-14T12:51:58;19.90;84.00
32366;DHT22;18837;46.832;16.838;2023-06-14T12:54:23;20.00;84.10
32366;DHT22;18837;46.832;16.838;2023-06-14T12:56:51;20.00;84.10
32366;DHT22;18837;46.832;16.838;2023-06-14T12:59:18;20.00;83.90
32366;DHT22;18837;46.832;16.838;2023-06-14T13:01:44;20.10;84.00
32366;DHT22;18837;46.832;16.838;2023-06-14T13:04:10;20.20;83.60
32366;DHT22;18837;46.832;16.838;2023-06-14T13:06:51;20.30;83.20
32366;DHT22;18837;46.832;16.838;2023-06-14T13:09:29;20.40;83.00
32366;DHT22;18837;46.832;16.838;2023-06-14T13:11:55;20.40;83.00
32366;DHT22;18837;46.832;16.838;2023-06-14T13:14:21;20.40;82.50
32366;DHT22;18837;46.832;16.838;2023-06-14T13:16:47;20.50;82.40
32366;DHT22;18837;46.832;16.838;2023-06-14T13:19:12;20.50;82.50
32366;DHT22;18837;46.832;16.838;2023-06-14T13:21:38;20.50;82.10
32366;DHT22;18837;46.832;16.838;2023-06-14T13:24:16;20.60;82.30
32366;DHT22;18837;46.832;16.838;2023-06-14T13:26:42;20.60;82.50
32366;DHT22;18837;46.832;16.838;2023-06-14T13:29:08;20.60;82.40
32366;DHT22;18837;46.832;16.838;2023-06-14T13:31:34;20.60;82.40
32366;DHT22;18837;46.832;16.838;2023-06-14T13:34:00;20.60;81.90
32366;DHT22;18837;46.832;16.838;2023-06-14T13:36:26;20.60;82.20
32366;DHT22;18837;46.832;16.838;2023-06-14T13:38:51;20.60;82.20
32366;DHT22;18837;46.832;16.838;2023-06-14T13:41:50;20.60;81.90
32366;DHT22;18837;46.832;16.838;2023-06-14T13:44:26;20.60;81.60
32366;DHT22;18837;46.832;16.838;2023-06-14T13:46:51;20.60;81.70
32366;DHT22;18837;46.832;16.838;2023-06-14T13:49:18;20.60;81.70
32366;DHT22;18837;46.832;16.838;2023-06-14T13:51:44;20.60;81.70
32366;DHT22;18837;46.832;16.838;2023-06-14T13:54:12;20.60;81.90
32366;DHT22;18837;46.832;16.838;2023-06-14T13:56:38;20.60;81.80
32366;DHT22;18837;46.832;16.838;2023-06-14T13:59:22;20.60;81.50
32366;DHT22;18837;46.832;16.838;2023-06-14T14:01:48;20.70;81.30
32366;DHT22;18837;46.832;16.838;2023-06-14T14:04:14;20.70;81.30
32366;DHT22;18837;46.832;16.838;2023-06-14T14:06:40;20.70;81.30
32366;DHT22;18837;46.832;16.838;2023-06-14T14:09:06;20.70;81.70
32366;DHT22;18837;46.832;16.838;2023-06-14T14:11:32;20.80;81.90
32366;DHT22;18837;46.832;16.838;2023-06-14T14:13:58;20.80;81.60
32366;DHT22;18837;46.832;16.838;2023-06-14T14:16:44;20.90;81.60
32366;DHT22;18837;46.832;16.838;2023-06-14T14:19:22;20.90;81.70
32366;DHT22;18837;46.832;16.838;2023-06-14T14:21:48;21.00;81.10
32366;DHT22;18837;46.832;16.838;2023-06-14T14:24:14;21.10;81.20
32366;DHT22;18837;46.832;16.838;2023-06-14T14:26:40;21.10;80.40
32366;DHT22;18837;46.832;16.838;2023-06-14T14:29:06;21.20;80.40
32366;DHT22;18837;46.832;16.838;2023-06-14T14:31:32;21.30;80.70
32366;DHT22;18837;46.832;16.838;2023-06-14T14:34:13;21.40;80.50
32366;DHT22;18837;46.832;16.838;2023-06-14T14:36:39;21.40;79.80
32366;DHT22;18837;46.832;16.838;2023-06-14T14:39:08;21.50;79.30
32366;DHT22;18837;46.832;16.838;2023-06-14T14:41:35;21.50;78.80
32366;DHT22;18837;46.832;16.838;2023-06-14T14:44:03;21.50;78.60
32366;DHT22;18837;46.832;16.838;2023-06-14T14:46:29;21.60;79.00
32366;DHT22;18837;46.832;16.838;2023-06-14T14:49:04;21.60;78.80
32366;DHT22;18837;46.832;16.838;2023-06-14T14:51:43;21.60;78.90
32366;DHT22;18837;46.832;16.838;2023-06-14T14:54:14;21.60;79.70
32366;DHT22;18837;46.832;16.838;2023-06-14T14:56:40;21.70;79.10
32366;DHT22;18837;46.832;16.838;2023-06-14T14:59:06;21.70;78.60
32366;DHT22;18837;46.832;16.838;2023-06-14T15:01:31;21.70;78.30
32366;DHT22;18837;46.832;16.838;2023-06-14T15:03:57;21.70;78.00
32366;DHT22;18837;46.832;16.838;2023-06-14T15:06:23;21.70;78.80
32366;DHT22;18837;46.832;16.838;2023-06-14T15:08:54;21.70;78.90
32366;DHT22;18837;46.832;16.838;2023-06-14T15:11:20;21.80;78.30
32366;DHT22;18837;46.832;16.838;2023-06-14T15:13:47;21.80;78.60
32366;DHT22;18837;46.832;16.838;2023-06-14T15:16:12;21.80;78.60
32366;DHT22;18837;46.832;16.838;2023-06-14T15:18:38;21.90;78.40
32366;DHT22;18837;46.832;16.838;2023-06-14T15:21:04;21.90;78.20
32366;DHT22;18837;46.832;16.838;2023-06-14T15:23:39;22.00;78.00
32366;DHT22;18837;46.832;16.838;2023-06-14T15:26:14;22.00;77.80
32366;DHT22;18837;46.832;16.838;2023-06-14T15:28:41;22.10;77.70
32366;DHT22;18837;46.832;16.838;2023-06-14T15:31:07;22.10;77.00
32366;DHT22;18837;46.832;16.838;2023-06-14T15:33:33;22.10;77.30
32366;DHT22;18837;46.832;16.838;2023-06-14T15:35:59;22.20;77.30
32366;DHT22;18837;46.832;16.838;2023-06-14T15:38:25;22.10;76.30
32366;DHT22;18837;46.832;16.838;2023-06-14T15:40:51;22.20;76.00
32366;DHT22;18837;46.832;16.838;2023-06-14T15:43:39;22.10;75.40